createdAt,value
2023-03-15T00:02:37.630Z,50.21
2023-03-15T00:07:40.348Z,50.57
2023-03-15T00:12:43.089Z,50.36
2023-03-15T00:17:45.371Z,50.50
2023-03-15T00:22:47.664Z,50.40
2023-03-15T00:27:49.811Z,50.34
2023-03-15T00:32:56.514Z,50.38
2023-03-15T00:37:58.714Z,50.56
2023-03-15T00:43:00.798Z,50.72
2023-03-15T00:48:03.008Z,50.95
2023-03-15T00:53:05.192Z,51.16
2023-03-15T00:58:07.276Z,50.74
2023-03-15T01:03:10.307Z,50.72
2023-03-15T01:08:12.454Z,51.26
2023-03-15T01:13:14.593Z,51.29
2023-03-15T01:18:17.288Z,51.19
2023-03-15T01:23:19.474Z,53.38
2023-03-15T01:28:22.232Z,53.77
2023-03-15T01:33:24.586Z,53.06
2023-03-15T01:38:26.812Z,52.79
2023-03-15T01:43:32.195Z,52.65
2023-03-15T01:49:10.421Z,52.28
2023-03-15T01:54:20.172Z,52.64
2023-03-15T01:59:28.144Z,53.12
2023-03-15T02:04:36.064Z,53.30
2023-03-15T02:10:07.712Z,53.91
2023-03-15T02:15:11.913Z,53.70
2023-03-15T02:20:38.381Z,53.68
2023-03-15T02:25:53.029Z,53.84
2023-03-15T02:30:55.862Z,53.74
2023-03-15T02:36:15.128Z,54.04
2023-03-15T02:41:28.725Z,54.23
2023-03-15T02:46:31.193Z,54.67
2023-03-15T02:51:34.640Z,54.29
2023-03-15T02:56:36.943Z,53.66
2023-03-15T03:01:39.582Z,54.05
2023-03-15T03:06:44.266Z,54.65
2023-03-15T03:11:46.486Z,54.72
2023-03-15T03:16:48.719Z,55.21
2023-03-15T03:21:53.070Z,54.98
2023-03-15T03:26:58.967Z,54.80
2023-03-15T03:32:01.269Z,55.03
2023-03-15T03:37:03.609Z,55.54
2023-03-15T03:42:05.937Z,55.22
2023-03-15T03:47:08.556Z,55.53
2023-03-15T03:52:10.834Z,55.97
2023-03-15T03:57:12.970Z,56.32
2023-03-15T04:02:15.250Z,55.86
2023-03-15T04:07:17.544Z,55.69
2023-03-15T04:12:20.078Z,55.05
2023-03-15T04:17:22.224Z,55.15
2023-03-15T04:22:24.351Z,55.18
2023-03-15T04:27:26.534Z,54.72
2023-03-15T04:32:28.634Z,54.87
2023-03-15T04:37:32.693Z,54.41
2023-03-15T04:42:34.840Z,54.53
2023-03-15T04:47:37.322Z,54.45
2023-03-15T04:52:39.817Z,54.25
2023-03-15T04:57:41.996Z,54.61
2023-03-15T05:02:44.928Z,55.58
2023-03-15T05:07:47.062Z,55.07
2023-03-15T05:12:49.318Z,55.26
2023-03-15T05:17:55.358Z,54.71
2023-03-15T05:22:57.983Z,54.36
2023-03-15T05:28:00.186Z,54.30
2023-03-15T05:33:05.345Z,54.12
2023-03-15T05:38:07.466Z,54.28
2023-03-15T05:43:09.750Z,54.98
2023-03-15T05:48:12.254Z,55.57
2023-03-15T05:53:14.504Z,55.60
2023-03-15T05:58:16.675Z,54.62
2023-03-15T06:03:19.182Z,54.65
2023-03-15T06:08:21.277Z,55.13
2023-03-15T06:13:23.446Z,54.90
2023-03-15T06:18:25.681Z,54.75
2023-03-15T06:23:27.802Z,54.70
2023-03-15T06:28:29.942Z,55.00
2023-03-15T06:33:32.848Z,55.51
2023-03-15T06:38:35.055Z,55.23
2023-03-15T06:43:37.186Z,55.39
2023-03-15T06:48:39.562Z,55.81
2023-03-15T06:53:41.843Z,56.35
2023-03-15T06:58:44.305Z,55.98
2023-03-15T07:03:46.860Z,56.24
2023-03-15T07:08:49.003Z,56.19
2023-03-15T07:13:51.738Z,56.69
2023-03-15T07:18:55.942Z,56.90
2023-03-15T07:23:58.179Z,57.44
2023-03-15T07:29:00.710Z,58.29
2023-03-15T07:34:03.116Z,58.23
2023-03-15T07:39:05.301Z,58.41
2023-03-15T07:44:07.587Z,58.33
2023-03-15T07:49:09.690Z,58.16
2023-03-15T07:54:12.665Z,58.20
2023-03-15T07:59:15.889Z,58.78
2023-03-15T08:04:18.017Z,59.81
2023-03-15T08:09:20.105Z,59.65
2023-03-15T08:14:22.288Z,59.04
2023-03-15T08:19:24.576Z,58.37
2023-03-15T08:24:27.746Z,57.93
2023-03-15T08:29:29.939Z,57.35
2023-03-15T08:34:35.047Z,57.57
2023-03-15T08:39:38.009Z,58.38
2023-03-15T08:44:40.076Z,57.61
2023-03-15T08:49:42.230Z,57.43
2023-03-15T08:54:44.625Z,57.11
2023-03-15T08:59:46.801Z,57.46
2023-03-15T09:04:48.980Z,57.27
2023-03-15T09:09:54.684Z,57.82
2023-03-15T09:14:56.844Z,57.96
2023-03-15T09:19:59.030Z,57.94
2023-03-15T09:25:01.195Z,57.61
2023-03-15T09:30:04.192Z,57.22
2023-03-15T09:35:10.741Z,56.57
2023-03-15T09:40:30.632Z,56.64
2023-03-15T09:45:55.928Z,55.77
2023-03-15T09:51:05.528Z,55.58
2023-03-15T09:56:56.835Z,55.07
2023-03-15T10:02:02.728Z,54.85
2023-03-15T10:07:10.965Z,54.45
2023-03-15T10:12:23.504Z,54.03
2023-03-15T10:18:00.314Z,53.80
2023-03-15T10:23:29.817Z,53.71
2023-03-15T10:28:37.908Z,54.08
2023-03-15T10:33:44.596Z,53.80
2023-03-15T10:38:48.737Z,53.66
2023-03-15T10:44:00.737Z,53.91
2023-03-15T10:49:16.488Z,53.79
2023-03-15T10:54:21.652Z,53.72
2023-03-15T10:59:26.492Z,53.57
2023-03-15T11:04:28.983Z,53.67
2023-03-15T11:09:42.981Z,53.47
2023-03-15T11:14:50.418Z,53.42
2023-03-15T11:20:14.403Z,53.25
2023-03-15T11:25:19.484Z,53.22
2023-03-15T11:30:29.473Z,53.25
2023-03-15T11:35:48.512Z,52.96
2023-03-15T11:40:57.269Z,53.21
2023-03-15T11:46:05.093Z,52.60
2023-03-15T11:51:08.935Z,52.61
2023-03-15T11:56:24.392Z,52.40
2023-03-15T12:01:27.184Z,52.07
2023-03-15T12:06:38.362Z,51.55
2023-03-15T12:11:43.184Z,51.36
2023-03-15T12:16:46.884Z,50.59
2023-03-15T12:21:58.599Z,50.63
2023-03-15T12:27:19.399Z,50.58
2023-03-15T12:32:21.935Z,50.44
2023-03-15T12:37:44.999Z,50.05
2023-03-15T12:42:47.129Z,50.93
2023-03-15T12:47:51.932Z,50.86
2023-03-15T12:53:00.889Z,51.67
2023-03-15T12:58:05.079Z,51.63
2023-03-15T13:03:12.484Z,50.61
2023-03-15T13:08:22.427Z,49.43
2023-03-15T13:13:48.697Z,48.82
2023-03-15T13:19:05.681Z,47.15
2023-03-15T13:24:19.993Z,45.81
2023-03-15T13:29:31.239Z,44.15
2023-03-15T13:34:34.598Z,43.58
2023-03-15T13:39:36.784Z,42.93
2023-03-15T13:44:39.275Z,42.48
2023-03-15T13:49:41.396Z,42.29
2023-03-15T13:54:44.828Z,41.56
2023-03-15T13:59:54.797Z,40.03
2023-03-15T14:05:00.183Z,39.93
2023-03-15T14:10:29.658Z,39.27
2023-03-15T14:15:43.380Z,39.78
2023-03-15T14:20:48.252Z,39.73
2023-03-15T14:26:16.406Z,39.61
2023-03-15T14:31:25.973Z,39.00
2023-03-15T14:36:42.151Z,38.36
2023-03-15T14:41:45.234Z,37.73
2023-03-15T14:46:48.995Z,38.67
2023-03-15T14:51:57.672Z,38.76
2023-03-15T14:57:00.289Z,40.20
2023-03-15T15:02:03.321Z,39.12
2023-03-15T15:07:06.209Z,38.99
2023-03-15T15:12:11.566Z,39.56
2023-03-15T15:17:13.721Z,40.09
2023-03-15T15:22:17.321Z,39.42
2023-03-15T15:27:19.389Z,38.59
2023-03-15T15:32:21.522Z,38.21
2023-03-15T15:37:23.656Z,37.96
2023-03-15T15:42:26.110Z,37.59
2023-03-15T15:47:28.178Z,36.56
2023-03-15T15:52:30.459Z,36.41
2023-03-15T15:57:32.851Z,35.30
2023-03-15T16:02:36.049Z,34.84
2023-03-15T16:07:38.676Z,35.93
2023-03-15T16:12:40.753Z,37.75
2023-03-15T16:17:43.324Z,41.03
2023-03-15T16:22:51.994Z,41.39
2023-03-15T16:27:55.835Z,42.20
2023-03-15T16:32:59.338Z,42.57
2023-03-15T16:38:02.218Z,43.28
2023-03-15T16:43:06.602Z,43.76
2023-03-15T16:48:17.353Z,44.42
2023-03-15T16:53:21.573Z,45.27
2023-03-15T16:58:33.881Z,45.89
2023-03-15T17:03:36.585Z,46.11
2023-03-15T17:08:51.353Z,46.77
2023-03-15T17:13:53.773Z,46.75
2023-03-15T17:18:56.242Z,47.12
2023-03-15T17:23:58.685Z,47.42
2023-03-15T17:29:03.239Z,47.51
2023-03-15T17:34:05.456Z,47.55
2023-03-15T17:39:10.982Z,48.04
2023-03-15T17:44:13.217Z,48.33
2023-03-15T17:49:16.670Z,48.82
2023-03-15T17:54:21.045Z,48.68
2023-03-15T17:59:23.297Z,49.03
2023-03-15T18:04:25.451Z,49.55
2023-03-15T18:09:27.641Z,50.09
2023-03-15T18:14:31.314Z,50.38
2023-03-15T18:19:33.764Z,50.85
2023-03-15T18:24:36.268Z,51.03
2023-03-15T18:29:38.622Z,51.33
2023-03-15T18:34:41.522Z,52.10
2023-03-15T18:39:43.651Z,52.38
2023-03-15T18:44:45.887Z,52.59
2023-03-15T18:49:49.563Z,52.83
2023-03-15T18:54:53.821Z,53.31
2023-03-15T18:59:56.224Z,53.35
2023-03-15T19:04:59.653Z,53.15
2023-03-15T19:10:02.885Z,53.12
2023-03-15T19:15:06.016Z,53.78
2023-03-15T19:20:12.373Z,53.71
2023-03-15T19:25:14.778Z,53.64
2023-03-15T19:30:21.240Z,53.39
2023-03-15T19:35:23.949Z,53.31
2023-03-15T19:40:26.411Z,53.10
2023-03-15T19:45:28.585Z,53.13
2023-03-15T19:50:32.853Z,53.13
2023-03-15T19:55:36.266Z,53.53
2023-03-15T20:00:38.525Z,53.94
2023-03-15T20:05:41.698Z,54.20
2023-03-15T20:10:44.719Z,54.50
2023-03-15T20:15:47.816Z,54.74
2023-03-15T20:20:51.735Z,54.50
2023-03-15T20:26:04.638Z,55.72
2023-03-15T20:31:08.863Z,55.76
2023-03-15T20:36:11.721Z,56.61
2023-03-15T20:41:14.676Z,56.74
2023-03-15T20:46:19.250Z,56.65
2023-03-15T20:51:21.653Z,56.19
2023-03-15T20:56:24.144Z,56.72
2023-03-15T21:01:26.647Z,57.00
2023-03-15T21:06:29.681Z,57.15
2023-03-15T21:11:32.693Z,56.85
2023-03-15T21:16:35.764Z,56.77
2023-03-15T21:21:38.607Z,56.38
2023-03-15T21:26:44.314Z,57.31
2023-03-15T21:31:46.571Z,56.92
2023-03-15T21:36:49.670Z,57.28
2023-03-15T21:41:52.569Z,57.14
2023-03-15T21:46:54.694Z,57.67
2023-03-15T21:51:57.112Z,57.32
2023-03-15T21:56:59.325Z,57.06
2023-03-15T22:02:02.938Z,56.07
2023-03-15T22:07:05.023Z,55.99
2023-03-15T22:50:44.085Z,57.56
2023-03-15T22:55:46.195Z,57.11
2023-03-15T23:00:48.997Z,56.87
2023-03-15T23:05:51.198Z,57.75
2023-03-15T23:10:53.406Z,57.09
2023-03-15T23:15:55.718Z,56.69
2023-03-15T23:21:07.593Z,56.75
2023-03-15T23:26:11.435Z,56.58
2023-03-15T23:31:13.727Z,57.09
2023-03-15T23:36:15.972Z,56.77
2023-03-15T23:41:18.542Z,56.84
2023-03-15T23:46:20.741Z,57.09
2023-03-15T23:51:23.013Z,57.20
2023-03-15T23:56:25.374Z,57.36
